Time;durP1;ratioP1;P1;durP2;ratioP2;P2;SDS_P1;SDS_P2;PMS_P1;PMS_P2;Temp;Humidity;BMP_temperature;BMP_pressure;BME280_temperature;BME280_humidity;BME280_pressure;Samples;Min_cycle;Max_cycle;Signal;HPM_P1;HPM_P2
2023/05/11 00:00:38;;;;;;;10.50;4.97;;;;;;;9.39;100.00;100596.78;5006408;28;20091;-18
2023/05/11 00:03:04;;;;;;;9.20;4.55;;;;;;;9.23;100.00;100604.09;5006312;28;20413;-18
2023/05/11 00:05:30;;;;;;;10.48;4.55;;;;;;;9.21;100.00;100602.59;5006297;28;20086;-20
2023/05/11 00:07:55;;;;;;;10.10;4.78;;;;;;;9.22;100.00;100602.44;5006289;28;20026;-18
2023/05/11 00:10:21;;;;;;;9.05;4.90;;;;;;;9.09;100.00;100591.69;5006219;28;20800;-17
2023/05/11 00:12:46;;;;;;;7.90;4.55;;;;;;;9.17;100.00;100604.03;5006178;28;20113;-17
2023/05/11 00:15:12;;;;;;;9.13;4.90;;;;;;;9.21;100.00;100599.94;5006668;28;20022;-17
2023/05/11 00:17:37;;;;;;;11.25;5.60;;;;;;;8.94;100.00;100604.31;5006222;28;20037;-18
2023/05/11 00:20:03;;;;;;;8.82;5.05;;;;;;;8.95;100.00;100596.13;5006299;28;20026;-18
2023/05/11 00:22:28;;;;;;;9.05;5.03;;;;;;;9.21;100.00;100599.94;5005943;28;20424;-18
2023/05/11 00:24:54;;;;;;;9.32;4.68;;;;;;;9.08;100.00;100605.22;5006318;28;20105;-18
2023/05/11 00:27:19;;;;;;;9.23;5.28;;;;;;;9.08;100.00;100603.38;5006245;28;20049;-17
2023/05/11 00:29:44;;;;;;;11.68;5.53;;;;;;;9.14;100.00;100599.91;5005847;28;20053;-18
2023/05/11 00:32:10;;;;;;;7.95;4.97;;;;;;;9.03;100.00;100603.97;5005960;28;20037;-18
2023/05/11 00:34:36;;;;;;;8.98;5.05;;;;;;;9.10;100.00;100601.34;5005507;28;20110;-18
2023/05/11 00:37:01;;;;;;;7.63;4.63;;;;;;;9.20;100.00;100598.31;5005918;28;20033;-18
2023/05/11 00:39:27;;;;;;;10.48;5.30;;;;;;;9.12;100.00;100601.16;5005612;28;20041;-22
2023/05/11 00:41:53;;;;;;;9.52;5.50;;;;;;;9.04;100.00;100615.41;5005889;28;20022;-18
2023/05/11 00:44:18;;;;;;;8.70;4.85;;;;;;;8.92;100.00;100612.47;5005508;28;20033;-17
2023/05/11 00:46:43;;;;;;;9.18;4.90;;;;;;;9.05;100.00;100593.94;5005694;28;20496;-18
2023/05/11 00:49:09;;;;;;;8.75;5.00;;;;;;;8.95;100.00;100603.28;5005619;28;20068;-18
2023/05/11 00:51:35;;;;;;;14.30;5.20;;;;;;;9.04;100.00;100600.28;5005507;28;20046;-17
2023/05/11 00:54:01;;;;;;;9.10;5.53;;;;;;;9.08;100.00;100600.72;5005604;28;20061;-18
2023/05/11 00:56:27;;;;;;;12.65;5.50;;;;;;;9.03;100.00;100608.44;5005382;28;20026;-18
2023/05/11 00:58:52;;;;;;;9.00;4.70;;;;;;;9.09;100.00;100609.50;5005361;28;20516;-18
2023/05/11 01:01:17;;;;;;;9.00;5.25;;;;;;;8.96;100.00;100616.38;5005453;28;20034;-18
2023/05/11 01:03:44;;;;;;;9.38;5.45;;;;;;;9.03;100.00;100606.63;5005447;28;20080;-19
2023/05/11 01:06:28;;;;;;;10.60;5.65;;;;;;;8.63;100.00;100595.69;5005037;28;20033;-18
2023/05/11 01:09:04;;;;;;;12.68;5.50;;;;;;;8.70;100.00;100614.34;5005600;28;20058;-18
2023/05/11 01:11:52;;;;;;;8.20;5.07;;;;;;;8.65;100.00;100595.50;5005022;28;20127;-17
2023/05/11 01:14:24;;;;;;;8.30;5.57;;;;;;;8.72;100.00;100614.16;5005481;28;20030;-17
2023/05/11 01:16:55;;;;;;;8.60;5.35;;;;;;;8.63;100.00;100613.50;5005280;28;20038;-19
2023/05/11 01:19:39;;;;;;;13.45;5.10;;;;;;;8.62;100.00;100619.81;5005372;28;20028;-17
2023/05/11 01:22:17;;;;;;;8.30;5.03;;;;;;;8.67;100.00;100620.06;5005091;28;20049;-18
2023/05/11 01:25:04;;;;;;;10.95;5.55;;;;;;;8.40;100.00;100597.75;5005156;28;20033;-18
2023/05/11 01:27:57;;;;;;;10.55;5.22;;;;;;;8.73;100.00;100629.94;5005187;28;20026;-19
2023/05/11 01:30:30;;;;;;;9.52;5.28;;;;;;;8.65;100.00;100611.47;5005143;28;20361;-18
2023/05/11 01:33:01;;;;;;;8.93;5.63;;;;;;;8.69;100.00;100622.53;5005412;28;20053;-18
2023/05/11 01:35:31;;;;;;;9.77;5.93;;;;;;;8.57;100.00;100630.22;5005118;28;20092;-19
2023/05/11 01:37:58;;;;;;;12.20;5.65;;;;;;;8.50;100.00;100630.16;5005175;28;20156;-17
2023/05/11 01:40:27;;;;;;;10.45;5.40;;;;;;;8.59;100.00;100633.50;5005196;28;20041;-18
2023/05/11 01:43:07;;;;;;;;;;;;;;;8.03;100.00;100608.44;5005593;28;20056;-19
2023/05/11 01:45:37;;;;;;;11.45;5.60;;;;;;;8.36;100.00;100623.88;5004772;28;19918;-18
2023/05/11 01:48:06;;;;;;;9.10;5.40;;;;;;;8.51;100.00;100620.34;5020009;28;20578;-18
2023/05/11 01:50:31;;;;;;;;;;;;;;;8.51;100.00;100625.66;5005377;28;20034;-19
2023/05/11 01:52:57;;;;;;;10.73;5.95;;;;;;;8.65;100.00;100620.25;5005066;28;20004;-20
2023/05/11 01:55:24;;;;;;;9.13;5.38;;;;;;;8.44;100.00;100605.16;5004844;28;20056;-18
2023/05/11 01:57:52;;;;;;;11.32;5.80;;;;;;;8.53;100.00;100599.72;5005075;28;20033;-18
2023/05/11 02:00:18;;;;;;;9.93;5.60;;;;;;;8.52;100.00;100612.19;5005141;28;20180;-18
2023/05/11 02:02:46;;;;;;;11.25;5.95;;;;;;;8.38;100.00;100611.22;5004718;28;20037;-18
2023/05/11 02:05:18;;;;;;;9.75;6.13;;;;;;;8.36;100.00;100586.66;5004847;28;20504;-16
2023/05/11 02:07:45;;;;;;;13.38;5.95;;;;;;;8.50;100.00;100602.75;5004729;28;20726;-18
2023/05/11 02:10:12;;;;;;;9.65;5.80;;;;;;;8.44;100.00;100607.81;5006109;28;20496;-20
2023/05/11 02:12:41;;;;;;;10.65;5.50;;;;;;;8.18;100.00;100591.59;5008567;28;20029;-18
2023/05/11 02:15:08;;;;;;;;;;;;;;;8.39;100.00;100612.84;5008777;28;20100;-18
2023/05/11 02:17:35;;;;;;;10.90;5.35;;;;;;;8.29;100.00;100600.91;5008364;28;19917;-18
2023/05/11 02:20:02;;;;;;;10.38;5.38;;;;;;;8.26;100.00;100604.75;5008843;28;20034;-22
2023/05/11 02:22:29;;;;;;;9.63;5.57;;;;;;;8.49;100.00;100614.41;5008596;28;20037;-18
2023/05/11 02:24:55;;;;;;;11.02;6.07;;;;;;;8.56;100.00;100592.19;5008296;28;20029;-20
2023/05/11 02:27:20;;;;;;;11.00;6.15;;;;;;;8.76;100.00;100608.25;5008143;28;20137;-19
2023/05/11 02:29:46;;;;;;;8.88;5.60;;;;;;;8.72;100.00;100607.00;5008039;28;20129;-19
2023/05/11 02:32:17;;;;;;;9.82;6.15;;;;;;;8.40;100.00;100608.38;5008209;28;20026;-18
2023/05/11 02:34:46;;;;;;;9.63;5.60;;;;;;;8.42;100.00;100611.69;5006725;28;20421;-17
2023/05/11 02:37:24;;;;;;;11.38;5.93;;;;;;;8.31;100.00;100607.66;5008241;28;20045;-18
2023/05/11 02:39:56;;;;;;;11.23;6.05;;;;;;;8.36;100.00;100593.81;5008125;28;20029;-18
2023/05/11 02:42:25;;;;;;;11.98;5.90;;;;;;;8.34;100.00;100604.63;5008045;28;20040;-17
2023/05/11 02:45:04;;;;;;;;;;;;;;;8.23;100.00;100608.63;5008255;28;20026;-18
2023/05/11 02:47:32;;;;;;;10.40;5.88;;;;;;;8.03;100.00;100608.44;5007916;28;19920;-22
2023/05/11 02:50:01;;;;;;;10.45;6.13;;;;;;;8.17;100.00;100596.09;5008221;28;20034;-19
2023/05/11 02:52:27;;;;;;;;;;;;;;;8.13;100.00;100607.28;5008653;28;20026;-18
2023/05/11 02:54:53;;;;;;;9.73;6.43;;;;;;;8.22;100.00;100604.31;5007699;28;19932;-18
2023/05/11 02:57:20;;;;;;;9.98;6.20;;;;;;;8.27;100.00;100606.41;5008011;28;20137;-18
2023/05/11 02:59:47;;;;;;;10.65;6.47;;;;;;;8.18;100.00;100610.22;5007551;28;20034;-20
2023/05/11 03:02:12;;;;;;;10.70;7.03;;;;;;;8.12;100.00;100616.28;5007504;28;20497;-18
2023/05/11 03:04:38;;;;;;;11.43;6.82;;;;;;;8.12;100.00;100608.31;5007650;28;20053;-18
2023/05/11 03:07:05;;;;;;;11.07;6.93;;;;;;;8.21;100.00;100605.34;5007295;28;20489;-17
2023/05/11 03:09:31;;;;;;;11.30;6.68;;;;;;;8.31;100.00;100628.09;5022681;28;20041;-17
2023/05/11 03:11:58;;;;;;;11.63;7.07;;;;;;;8.22;100.00;100627.41;5007313;28;20056;-18
2023/05/11 03:14:24;;;;;;;11.23;7.00;;;;;;;8.25;100.00;100617.25;5007587;28;20030;-18
2023/05/11 03:16:51;;;;;;;11.60;6.57;;;;;;;8.30;100.00;100629.94;5007458;28;20037;-17
2023/05/11 03:19:17;;;;;;;14.70;7.85;;;;;;;8.23;100.00;100629.03;5007483;28;20037;-18
2023/05/11 03:21:42;;;;;;;15.57;7.95;;;;;;;7.94;100.00;100620.16;5006075;28;20446;-19
2023/05/11 03:24:09;;;;;;;12.48;7.72;;;;;;;7.98;100.00;100628.59;5007220;28;20030;-18
2023/05/11 03:26:35;;;;;;;11.60;7.22;;;;;;;7.90;100.00;100628.72;5007157;28;20112;-18
2023/05/11 03:29:02;;;;;;;12.07;7.07;;;;;;;8.11;100.00;100631.41;5007058;28;20101;-18
2023/05/11 03:31:28;;;;;;;12.80;7.88;;;;;;;8.10;100.00;100621.78;5007077;28;20018;-17
2023/05/11 03:33:54;;;;;;;12.52;7.13;;;;;;;8.03;100.00;100629.69;5006847;28;20111;-18
2023/05/11 03:36:21;;;;;;;12.57;7.15;;;;;;;7.94;100.00;100629.97;5006963;28;20511;-18
2023/05/11 03:38:47;;;;;;;10.30;6.73;;;;;;;7.88;100.00;100636.84;5007085;28;20030;-19
2023/05/11 03:41:15;;;;;;;16.55;7.05;;;;;;;8.23;100.00;100639.66;5007107;28;20265;-19
2023/05/11 03:43:43;;;;;;;12.40;7.03;;;;;;;8.23;100.00;100650.31;5006627;28;20029;-18
2023/05/11 03:46:12;;;;;;;16.35;7.10;;;;;;;8.16;100.00;100649.44;5006853;28;20044;-18
2023/05/11 03:48:39;;;;;;;10.60;6.35;;;;;;;8.25;100.00;100649.13;5006519;28;20108;-19
2023/05/11 03:51:05;;;;;;;13.15;6.82;;;;;;;8.31;100.00;100650.19;5006733;28;20026;-18
2023/05/11 03:53:31;;;;;;;11.07;7.07;;;;;;;8.18;100.00;100636.78;5006575;28;20032;-19
2023/05/11 03:55:57;;;;;;;11.90;7.18;;;;;;;8.25;100.00;100642.97;5006750;28;20124;-18
2023/05/11 03:58:22;;;;;;;11.18;6.82;;;;;;;8.03;100.00;100635.00;5006630;28;20125;-18
2023/05/11 04:00:48;;;;;;;12.20;7.57;;;;;;;8.19;100.00;100643.72;5006611;28;20705;-18
2023/05/11 04:03:14;;;;;;;12.50;7.07;;;;;;;8.15;100.00;100645.09;5006502;28;20104;-19
2023/05/11 04:05:40;;;;;;;15.07;7.20;;;;;;;8.28;100.00;100642.59;5006184;28;20071;-17
2023/05/11 04:08:06;;;;;;;10.43;6.40;;;;;;;8.18;100.00;100642.91;5006253;28;20030;-18
2023/05/11 04:10:32;;;;;;;10.95;6.80;;;;;;;8.20;100.00;100634.75;5006093;28;20062;-18
2023/05/11 04:12:57;;;;;;;12.23;6.70;;;;;;;8.48;100.00;100647.28;5006647;28;20038;-18
2023/05/11 04:15:23;;;;;;;10.40;7.20;;;;;;;8.41;100.00;100648.06;5005844;28;20553;-19
2023/05/11 04:17:48;;;;;;;11.85;6.43;;;;;;;8.50;100.00;100650.59;5006502;28;20034;-17
2023/05/11 04:20:14;;;;;;;11.30;6.55;;;;;;;8.77;100.00;100647.16;5005731;28;20064;-18
2023/05/11 04:22:39;;;;;;;13.00;6.70;;;;;;;9.00;100.00;100657.53;5001405;28;20541;-18
2023/05/11 04:25:05;;;;;;;10.98;6.20;;;;;;;8.88;100.00;100653.78;5005740;28;20477;-18
2023/05/11 04:27:34;;;;;;;12.55;6.70;;;;;;;8.70;100.00;100638.28;5005827;28;20101;-18
2023/05/11 04:30:00;;;;;;;11.80;6.40;;;;;;;9.04;100.00;100657.97;5005796;28;20091;-18
2023/05/11 04:32:25;;;;;;;10.95;6.55;;;;;;;9.16;100.00;100645.78;5002471;28;20037;-18
2023/05/11 04:34:51;;;;;;;10.00;6.15;;;;;;;9.36;100.00;100650.41;5005519;28;20022;-18
2023/05/11 04:37:16;;;;;;;12.30;8.30;;;;;;;9.16;100.00;100645.78;5005259;28;20026;-18
2023/05/11 04:39:41;;;;;;;10.25;6.55;;;;;;;9.31;100.00;100660.81;5005623;28;20018;-18
2023/05/11 04:42:07;;;;;;;11.77;6.60;;;;;;;9.14;100.00;100663.78;5005345;28;20022;-20
2023/05/11 04:44:32;;;;;;;12.20;6.63;;;;;;;9.02;100.00;100655.50;5005611;28;20022;-18
2023/05/11 04:46:58;;;;;;;11.65;7.05;;;;;;;9.01;100.00;100653.03;5005335;28;20032;-16
2023/05/11 04:49:23;;;;;;;11.98;7.00;;;;;;;8.94;100.00;100662.81;5005089;28;20049;-20
2023/05/11 04:51:49;;;;;;;11.52;6.70;;;;;;;9.40;100.00;100657.00;5005103;28;20421;-18
2023/05/11 04:54:14;;;;;;;13.48;7.60;;;;;;;9.33;100.00;100672.09;5005067;28;20018;-18
2023/05/11 04:56:40;;;;;;;14.27;5.50;;;;;;;9.22;100.00;100660.97;5005435;28;20026;-19
2023/05/11 04:59:06;;;;;;;13.85;6.18;;;;;;;9.31;100.00;100672.28;5004848;28;20030;-18
2023/05/11 05:01:31;;;;;;;8.93;5.53;;;;;;;9.35;100.00;100657.56;5020560;28;20030;-18
2023/05/11 05:03:57;;;;;;;10.35;5.70;;;;;;;9.52;100.00;100666.06;5004749;28;20053;-18
2023/05/11 05:06:23;;;;;;;12.70;5.57;;;;;;;9.64;100.00;100667.16;5005660;28;20032;-19
2023/05/11 05:08:48;;;;;;;9.95;6.07;;;;;;;10.14;100.00;100671.44;5004890;28;20036;-19
2023/05/11 05:11:14;;;;;;;10.75;5.70;;;;;;;10.21;100.00;100665.06;5005108;28;20038;-18
2023/05/11 05:13:39;;;;;;;11.98;6.55;;;;;;;10.27;100.00;100671.44;5005381;28;20505;-18
2023/05/11 05:16:05;;;;;;;10.70;5.78;;;;;;;10.22;100.00;100655.25;5005158;28;20452;-18
2023/05/11 05:18:30;;;;;;;7.78;5.15;;;;;;;10.31;100.00;100669.22;5005220;28;20038;-18
2023/05/11 05:20:56;;;;;;;9.32;5.13;;;;;;;10.48;100.00;100664.31;5005154;28;20042;-18
2023/05/11 05:23:21;;;;;;;9.10;5.13;;;;;;;10.65;100.00;100676.25;5005137;28;20037;-18
2023/05/11 05:25:47;;;;;;;10.18;5.35;;;;;;;10.69;100.00;100674.00;5004980;28;20018;-19
2023/05/11 05:28:12;;;;;;;9.38;5.47;;;;;;;11.16;100.00;100675.63;5005187;28;20033;-19
2023/05/11 05:30:38;;;;;;;10.70;5.90;;;;;;;11.32;99.21;100671.69;5004659;28;20110;-17
2023/05/11 05:33:03;;;;;;;9.02;5.10;;;;;;;11.08;98.60;100667.81;5005035;28;20056;-22
2023/05/11 05:35:28;;;;;;;10.90;4.97;;;;;;;11.47;100.00;100674.13;5005177;28;20030;-17
2023/05/11 05:37:54;;;;;;;8.02;4.68;;;;;;;11.56;97.98;100674.69;5005255;28;20057;-19
2023/05/11 05:40:20;;;;;;;11.00;5.40;;;;;;;11.10;98.59;100651.63;5005252;28;20100;-20
2023/05/11 05:42:45;;;;;;;10.20;4.57;;;;;;;11.20;99.64;100668.84;5020143;28;20030;-16
2023/05/11 05:45:11;;;;;;;7.90;4.60;;;;;;;11.56;98.24;100666.69;5007108;28;20026;-18
2023/05/11 05:47:37;;;;;;;8.77;4.82;;;;;;;11.72;97.46;100660.06;5008657;28;20021;-19
2023/05/11 05:50:02;;;;;;;15.57;5.20;;;;;;;12.00;95.71;100668.59;5009167;28;20025;-20
2023/05/11 05:52:28;;;;;;;10.68;4.90;;;;;;;11.79;96.88;100660.84;5009118;28;20121;-17
2023/05/11 05:54:53;;;;;;;8.93;4.60;;;;;;;12.05;95.12;100676.81;5008810;28;20060;-18
2023/05/11 05:57:19;;;;;;;9.23;5.00;;;;;;;12.29;93.00;100677.06;5008958;28;20116;-18
2023/05/11 05:59:44;;;;;;;9.85;4.88;;;;;;;11.80;97.94;100679.34;5009010;28;20108;-22
2023/05/11 06:02:11;;;;;;;10.18;6.07;;;;;;;12.20;97.11;100676.50;5008636;28;20476;-18
2023/05/11 06:04:37;;;;;;;7.82;4.75;;;;;;;11.70;97.00;100683.50;5008753;28;20108;-18
2023/05/11 06:07:02;;;;;;;8.43;4.45;;;;;;;11.74;98.24;100687.38;5020431;28;20508;-18
2023/05/11 06:09:28;;;;;;;8.63;4.05;;;;;;;11.29;98.25;100681.97;5027061;28;20033;-18
2023/05/11 06:11:53;;;;;;;8.80;4.20;;;;;;;11.55;97.77;100681.91;5008461;28;20100;-17
2023/05/11 06:14:21;;;;;;;8.18;4.63;;;;;;;11.34;98.03;100685.66;5008558;28;20088;-18
2023/05/11 06:16:47;;;;;;;7.80;4.43;;;;;;;11.54;97.23;100682.91;5008465;28;20084;-18
2023/05/11 06:19:12;;;;;;;7.90;4.25;;;;;;;11.33;98.07;100696.53;5008562;28;20062;-19
2023/05/11 06:21:40;;;;;;;7.13;3.92;;;;;;;11.81;97.10;100690.84;5008568;28;20020;-18
2023/05/11 06:24:06;;;;;;;6.60;3.85;;;;;;;11.88;97.35;100694.31;5008524;28;20483;-19
2023/05/11 06:26:31;;;;;;;7.30;4.32;;;;;;;12.14;94.28;100692.59;5008410;28;20025;-18
2023/05/11 06:28:56;;;;;;;8.13;3.88;;;;;;;12.30;93.95;100694.78;5008383;28;20033;-20
2023/05/11 06:31:23;;;;;;;8.80;3.80;;;;;;;11.93;94.97;100681.19;5008112;28;20030;-21
2023/05/11 06:33:49;;;;;;;9.85;3.75;;;;;;;11.87;96.41;100684.69;5008459;28;20065;-18
2023/05/11 06:36:14;;;;;;;6.57;3.92;;;;;;;11.94;97.78;100690.84;5008156;28;20033;-21
2023/05/11 06:38:39;;;;;;;8.88;4.00;;;;;;;11.99;96.73;100688.34;5008024;28;20413;-17
2023/05/11 06:41:06;;;;;;;7.53;4.20;;;;;;;12.27;95.05;100676.47;5007963;28;20049;-19
2023/05/11 06:43:32;;;;;;;8.45;3.78;;;;;;;12.38;93.97;100665.09;5008296;28;20116;-19
2023/05/11 06:45:57;;;;;;;6.90;3.50;;;;;;;12.63;93.45;100689.19;5008035;28;20030;-19
2023/05/11 06:48:24;;;;;;;6.70;3.40;;;;;;;12.28;92.32;100683.47;5007845;28;20526;-18
2023/05/11 06:50:50;;;;;;;9.15;3.70;;;;;;;12.39;91.13;100679.28;5008097;28;20509;-18
2023/05/11 06:53:16;;;;;;;7.80;3.22;;;;;;;12.46;89.63;100683.56;5008159;28;20025;-19
2023/05/11 06:55:42;;;;;;;6.72;3.45;;;;;;;12.42;90.48;100687.72;5007860;28;20572;-18
2023/05/11 06:58:08;;;;;;;6.10;3.08;;;;;;;12.32;87.31;100690.03;5007746;28;20044;-18
2023/05/11 07:00:33;;;;;;;5.28;2.75;;;;;;;12.42;86.83;100687.72;5007953;28;20026;-18
2023/05/11 07:02:59;;;;;;;9.70;4.03;;;;;;;12.67;85.62;100684.25;5007885;28;20026;-18
2023/05/11 07:05:24;;;;;;;4.95;3.08;;;;;;;12.78;86.35;100683.53;5007898;28;20096;-18
2023/05/11 07:07:50;;;;;;;8.43;3.33;;;;;;;12.90;86.26;100688.19;5007840;28;20044;-18
2023/05/11 07:10:16;;;;;;;6.68;2.97;;;;;;;12.78;82.52;100680.84;5006984;28;20117;-18
2023/05/11 07:12:41;;;;;;;5.97;3.20;;;;;;;12.46;83.82;100688.91;5007610;28;20114;-18
2023/05/11 07:15:07;;;;;;;6.03;3.03;;;;;;;12.75;84.62;100692.00;5007625;28;20029;-19
2023/05/11 07:17:33;;;;;;;6.03;3.08;;;;;;;12.94;84.01;100692.06;5007384;28;20026;-18
2023/05/11 07:19:58;;;;;;;6.03;2.85;;;;;;;13.03;81.89;100688.84;5005471;28;20037;-18
2023/05/11 07:22:24;;;;;;;5.65;3.03;;;;;;;13.09;80.70;100697.06;5006173;28;20049;-18
2023/05/11 07:24:49;;;;;;;5.90;2.95;;;;;;;13.19;81.27;100687.47;5021075;28;20038;-19
2023/05/11 07:27:14;;;;;;;4.85;2.58;;;;;;;13.33;78.67;100692.75;5026102;28;20095;-18
2023/05/11 07:29:40;;;;;;;7.25;2.95;;;;;;;13.12;77.55;100689.41;5023554;28;20044;-18
2023/05/11 07:32:06;;;;;;;6.65;2.60;;;;;;;13.43;77.94;100685.03;5006343;28;20064;-21
2023/05/11 07:34:32;;;;;;;5.35;2.92;;;;;;;13.60;75.26;100677.22;5007106;28;20060;-18
2023/05/11 07:36:57;;;;;;;6.80;3.00;;;;;;;14.10;72.89;100676.16;4997247;28;20034;-19
2023/05/11 07:39:22;;;;;;;5.72;2.42;;;;;;;13.95;73.52;100679.25;5000598;28;20052;-22
2023/05/11 07:41:48;;;;;;;5.40;2.78;;;;;;;13.82;74.05;100674.88;4998738;28;20084;-18
2023/05/11 07:44:14;;;;;;;6.90;2.60;;;;;;;13.94;73.74;100664.22;4997984;28;20030;-20
2023/05/11 07:46:39;;;;;;;4.18;2.45;;;;;;;14.24;72.25;100674.94;5000611;28;20112;-18
2023/05/11 07:49:05;;;;;;;7.07;2.63;;;;;;;14.53;72.75;100678.66;5000521;28;20420;-22
2023/05/11 07:51:31;;;;;;;8.75;3.03;;;;;;;14.54;71.26;100682.97;4999262;28;20508;-19
2023/05/11 07:53:56;;;;;;;6.18;2.97;;;;;;;14.31;73.88;100678.34;4996604;28;20041;-19
2023/05/11 07:56:21;;;;;;;5.18;2.80;;;;;;;14.16;71.00;100660.00;5001217;28;20518;-20
2023/05/11 07:58:47;;;;;;;5.40;2.67;;;;;;;14.58;72.03;100667.25;5001758;28;20018;-18
2023/05/11 08:01:12;;;;;;;6.30;3.00;;;;;;;15.06;70.52;100668.94;4999789;28;20033;-18
2023/05/11 08:03:38;;;;;;;5.80;3.55;;;;;;;14.99;66.69;100679.78;5001372;28;20037;-19
2023/05/11 08:06:04;;;;;;;6.38;3.08;;;;;;;15.55;67.13;100682.06;5002150;28;20022;-20
2023/05/11 08:08:29;;;;;;;5.05;2.53;;;;;;;15.81;62.00;100672.69;5002502;28;20022;-18
2023/05/11 08:10:55;;;;;;;9.02;3.53;;;;;;;15.30;65.28;100682.34;5003557;28;20083;-18
2023/05/11 08:13:21;;;;;;;6.22;2.45;;;;;;;15.31;65.80;100675.94;5003167;28;20037;-19
2023/05/11 08:15:47;;;;;;;5.80;3.13;;;;;;;15.35;62.84;100669.84;5003650;28;20422;-18
2023/05/11 08:18:12;;;;;;;6.50;2.95;;;;;;;15.47;61.23;100667.97;5002810;28;20030;-18
2023/05/11 08:20:40;;;;;;;5.65;2.40;;;;;;;15.04;61.19;100654.94;5003595;28;20022;-19
2023/05/11 08:23:06;;;;;;;4.72;2.38;;;;;;;15.51;59.14;100670.16;5003034;28;20010;-21
2023/05/11 08:25:33;;;;;;;6.95;2.80;;;;;;;15.54;60.38;100657.06;5003453;28;20104;-19
2023/05/11 08:27:59;;;;;;;5.43;2.70;;;;;;;15.58;64.21;100662.81;5002914;28;20532;-19
2023/05/11 08:30:24;;;;;;;6.28;2.70;;;;;;;15.13;62.83;100653.50;5003055;28;20026;-18
2023/05/11 08:32:50;;;;;;;4.38;2.65;;;;;;;15.75;59.19;100660.22;5003917;28;20014;-19
2023/05/11 08:35:16;;;;;;;4.40;2.67;;;;;;;16.14;59.33;100641.56;4998298;28;20037;-18
2023/05/11 08:37:41;;;;;;;8.23;3.33;;;;;;;16.22;58.79;100660.03;4997434;28;20191;-19
2023/05/11 08:40:10;;;;;;;4.63;2.92;;;;;;;16.39;55.47;100655.50;4997968;28;20500;-22
2023/05/11 08:42:39;;;;;;;5.25;3.08;;;;;;;16.64;55.83;100648.91;4992402;28;20045;-18
2023/05/11 08:45:06;;;;;;;6.97;3.25;;;;;;;16.64;55.92;100663.19;4999709;28;20022;-18
2023/05/11 08:47:32;;;;;;;4.45;2.85;;;;;;;16.72;55.41;100656.56;4994551;28;20492;-19
2023/05/11 08:49:58;;;;;;;4.13;2.83;;;;;;;16.63;54.90;100655.34;4994600;28;20034;-18
2023/05/11 08:52:24;;;;;;;5.65;3.00;;;;;;;16.40;56.57;100640.97;4997830;28;20052;-18
2023/05/11 08:54:50;;;;;;;4.93;2.83;;;;;;;16.32;58.17;100638.66;4993279;28;20512;-20
2023/05/11 08:57:16;;;;;;;6.15;3.03;;;;;;;15.91;57.31;100637.94;4999228;28;20037;-17
2023/05/11 08:59:45;;;;;;;5.78;3.17;;;;;;;16.86;55.55;100641.75;4992118;28;20050;-18
2023/05/11 09:02:16;;;;;;;11.98;5.60;;;;;;;17.32;52.25;100641.56;4999397;28;20022;-25
2023/05/11 09:04:42;;;;;;;6.22;3.08;;;;;;;17.37;54.12;100643.53;4997839;28;20026;-18
2023/05/11 09:07:10;;;;;;;6.90;2.95;;;;;;;17.10;52.18;100643.41;4994091;28;20021;-19
2023/05/11 09:09:36;;;;;;;4.53;2.30;;;;;;;17.21;51.24;100646.00;4997164;28;20030;-18
2023/05/11 09:12:02;;;;;;;7.82;3.08;;;;;;;17.80;52.13;100647.28;4994618;28;20124;-18
2023/05/11 09:14:28;;;;;;;4.45;2.70;;;;;;;18.19;50.56;100660.69;4997811;28;20113;-18
2023/05/11 09:16:54;;;;;;;4.15;2.38;;;;;;;17.25;50.48;100657.94;4991866;28;20125;-19
2023/05/11 09:19:19;;;;;;;4.55;2.67;;;;;;;17.21;52.04;100646.00;4998323;28;20092;-18
2023/05/11 09:21:46;;;;;;;5.88;2.67;;;;;;;16.95;50.17;100652.09;4999191;28;20489;-18
2023/05/11 09:24:12;;;;;;;5.97;2.85;;;;;;;17.00;52.22;100649.47;4986611;28;20129;-20
2023/05/11 09:26:37;;;;;;;5.13;2.40;;;;;;;17.31;50.29;100647.22;4994399;28;20113;-22
2023/05/11 09:29:03;;;;;;;6.28;3.03;;;;;;;17.45;49.27;100643.91;4988298;28;20137;-18
2023/05/11 09:31:45;;;;;;;9.35;3.65;;;;;;;18.01;47.92;100638.38;4996012;28;20481;-18
2023/05/11 09:34:14;;;;;;;4.72;2.40;;;;;;;17.54;49.83;100630.78;4998687;28;20022;-18
2023/05/11 09:36:41;;;;;;;6.00;3.40;;;;;;;17.94;48.97;100621.56;4998977;28;20270;-23
2023/05/11 09:39:07;;;;;;;7.50;3.22;;;;;;;18.60;48.44;100623.22;4988213;28;20121;-18
2023/05/11 09:41:33;;;;;;;4.35;2.72;;;;;;;18.92;44.28;100615.13;4993532;28;20038;-18
2023/05/11 09:44:13;;;;;;;7.38;4.20;;;;;;;18.40;46.54;100594.97;4989250;28;20734;-18
2023/05/11 09:46:40;;;;;;;4.22;2.55;;;;;;;17.98;45.02;100611.91;4993740;28;20030;-26
2023/05/11 09:49:07;;;;;;;6.15;2.95;;;;;;;18.48;46.23;100612.59;4988385;28;20030;-19
2023/05/11 09:51:35;;;;;;;3.97;2.40;;;;;;;18.70;43.51;100599.00;4990851;28;20116;-18
2023/05/11 09:54:17;;;;;;;4.15;2.72;;;;;;;17.81;47.05;100593.06;5001380;28;20433;-19
2023/05/11 09:56:45;;;;;;;5.38;2.50;;;;;;;17.79;46.35;100597.09;5000762;28;20110;-19
2023/05/11 09:59:11;;;;;;;4.65;2.83;;;;;;;18.48;50.42;100605.31;4989748;28;20023;-19
2023/05/11 10:01:37;;;;;;;5.28;3.33;;;;;;;18.74;46.37;100604.69;5003011;28;20034;-20
2023/05/11 10:04:03;;;;;;;5.63;2.90;;;;;;;18.57;44.53;100605.66;5004655;28;20127;-18
2023/05/11 10:06:46;;;;;;;5.55;2.60;;;;;;;18.83;46.72;100590.44;4998900;28;20092;-19
2023/05/11 10:09:13;;;;;;;5.32;2.92;;;;;;;18.82;46.03;100594.25;4987350;28;20049;-18
2023/05/11 10:11:45;;;;;;;7.10;3.43;;;;;;;18.44;46.92;100593.38;4993038;28;20841;-19
2023/05/11 10:14:12;;;;;;;4.55;2.25;;;;;;;18.41;45.45;100591.22;4988922;28;20027;-19
2023/05/11 10:16:41;;;;;;;4.60;3.03;;;;;;;18.37;46.92;100597.38;4997002;28;20018;-21
2023/05/11 10:19:06;;;;;;;5.28;2.50;;;;;;;18.32;45.51;100591.94;4985287;28;20561;-18
2023/05/11 10:21:34;;;;;;;5.78;2.92;;;;;;;18.99;47.07;100595.97;4996731;28;20026;-19
2023/05/11 10:24:01;;;;;;;4.10;2.65;;;;;;;19.70;43.03;100571.09;4985000;28;20557;-19
2023/05/11 10:26:29;;;;;;;3.22;2.42;;;;;;;19.41;43.98;100595.06;4996758;28;20468;-18
2023/05/11 10:28:55;;;;;;;5.15;2.85;;;;;;;19.41;44.36;100600.47;4987772;28;20033;-18
2023/05/11 10:31:23;;;;;;;5.38;3.00;;;;;;;19.89;42.96;100568.72;4997285;28;20037;-18
2023/05/11 10:33:50;;;;;;;;;;;;;;;19.73;42.19;100586.81;5008694;28;20121;-18
2023/05/11 10:36:17;;;;;;;4.17;2.27;;;;;;;19.44;40.95;100584.53;5002140;28;19921;-18
2023/05/11 10:38:42;;;;;;;4.73;2.20;;;;;;;19.23;43.23;100567.41;4989865;28;20276;-18
2023/05/11 10:41:23;;;;;;;4.20;2.35;;;;;;;18.68;43.69;100566.03;4997576;28;20030;-18
2023/05/11 10:44:00;;;;;;;4.78;2.20;;;;;;;19.06;43.82;100561.38;4988997;28;20027;-19
2023/05/11 10:47:07;;;;;;;4.93;2.45;;;;;;;19.60;41.08;100555.63;4999510;28;20041;-19
2023/05/11 10:50:17;;;;;;;3.40;2.15;;;;;;;18.85;43.21;100568.56;4987469;28;20053;-18
2023/05/11 10:53:24;;;;;;;4.22;2.20;;;;;;;19.81;43.14;100567.34;4997613;28;20540;-21
2023/05/11 10:56:18;;;;;;;3.53;2.40;;;;;;;18.92;42.46;100569.16;4982048;28;20038;-19
2023/05/11 10:59:15;;;;;;;4.70;3.50;;;;;;;18.78;44.34;100567.97;5006694;28;20034;-19
2023/05/11 11:01:42;;;;;;;6.28;3.10;;;;;;;18.54;43.64;100560.25;4999886;28;20493;-17
2023/05/11 11:04:09;;;;;;;5.78;3.08;;;;;;;18.74;46.08;100547.97;4988377;28;20422;-19
2023/05/11 11:06:40;;;;;;;3.77;2.80;;;;;;;19.38;44.16;100542.31;5000152;28;20033;-17
2023/05/11 11:09:07;;;;;;;7.85;3.15;;;;;;;19.42;43.50;100554.22;5000569;28;20069;-19
2023/05/11 11:11:38;;;;;;;4.88;2.10;;;;;;;18.63;43.84;100538.97;4994121;28;20518;-18
2023/05/11 11:14:05;;;;;;;3.25;2.22;;;;;;;18.54;43.47;100551.34;5007740;28;20029;-18
2023/05/11 11:16:34;;;;;;;4.20;2.42;;;;;;;18.67;43.27;100532.81;4996994;28;20030;-19
2023/05/11 11:19:27;;;;;;;3.13;2.03;;;;;;;18.71;44.99;100549.28;5003582;28;20083;-20
2023/05/11 11:21:53;;;;;;;3.30;2.05;;;;;;;18.98;43.30;100545.66;4997931;28;20038;-18
2023/05/11 11:24:37;;;;;;;5.72;2.60;;;;;;;19.05;42.73;100547.06;5002612;28;20026;-19
2023/05/11 11:27:07;;;;;;;5.07;2.65;;;;;;;18.64;44.21;100552.22;5007371;28;20036;-20